Time;durP1;ratioP1;P1;durP2;ratioP2;P2;SDS_P1;SDS_P2;PMS_P1;PMS_P2;Temp;Humidity;BMP_temperature;BMP_pressure;BME280_temperature;BME280_humidity;BME280_pressure;Samples;Min_cycle;Max_cycle;Signal;HPM_P1;HPM_P2
2021/09/11 00:01:59;;;;;;;29.15;16.70;;;;;;;10.91;78.41;99836.09;1726137;82;21481;-69
2021/09/11 00:04:26;;;;;;;27.90;17.12;;;;;;;10.85;78.61;99842.60;1718378;82;21486;-68
2021/09/11 00:06:54;;;;;;;25.95;16.12;;;;;;;10.79;78.84;99842.33;1725653;82;21059;-68
2021/09/11 00:09:20;;;;;;;24.40;15.63;;;;;;;10.82;78.77;99839.89;1744775;82;21058;-69
2021/09/11 00:11:47;;;;;;;26.35;15.70;;;;;;;10.89;78.46;99844.52;1730320;82;21039;-69
2021/09/11 00:14:15;;;;;;;26.10;16.57;;;;;;;10.88;78.31;99844.23;1737861;82;21071;-68
2021/09/11 00:16:41;;;;;;;25.10;17.50;;;;;;;10.79;78.46;99841.80;1725273;82;21003;-69
2021/09/11 00:19:09;;;;;;;27.48;16.17;;;;;;;10.73;78.65;99834.72;1718406;82;21047;-68
2021/09/11 00:21:38;;;;;;;25.80;15.50;;;;;;;10.75;78.55;99838.51;1726899;82;20976;-69
2021/09/11 00:24:06;;;;;;;28.77;16.23;;;;;;;10.79;78.27;99836.89;1741473;82;21086;-68
2021/09/11 00:26:32;;;;;;;25.52;16.37;;;;;;;10.75;78.17;99834.42;1732169;82;21063;-68
2021/09/11 00:28:58;;;;;;;23.62;15.35;;;;;;;10.68;78.39;99835.23;1733252;82;20999;-68
2021/09/11 00:31:25;;;;;;;29.15;15.05;;;;;;;10.59;78.56;99832.78;1740851;82;21015;-68
2021/09/11 00:33:51;;;;;;;27.55;15.93;;;;;;;10.59;78.54;99836.32;1737148;82;21385;-68
2021/09/11 00:36:19;;;;;;;26.12;15.15;;;;;;;10.64;78.37;99835.49;1742825;82;20980;-68
2021/09/11 00:38:45;;;;;;;23.50;14.80;;;;;;;10.62;78.36;99837.14;1741466;82;21030;-68
2021/09/11 00:41:11;;;;;;;31.60;16.67;;;;;;;10.54;78.55;99828.67;1726356;82;21090;-68
2021/09/11 00:43:50;;;;;;;30.70;16.32;;;;;;;10.46;78.78;99831.38;1742058;82;21008;-67
2021/09/11 00:46:16;;;;;;;29.27;15.63;;;;;;;10.48;78.79;99836.84;1743246;82;21018;-67
2021/09/11 00:48:44;;;;;;;24.75;14.45;;;;;;;10.54;78.55;99836.30;1743646;82;21772;-67
2021/09/11 00:51:10;;;;;;;;;;;;;;;10.52;78.54;99832.22;1727672;82;21609;-67
2021/09/11 00:53:39;;;;;;;31.42;16.12;;;;;;;10.46;78.82;99836.28;1738426;82;20169;-68
2021/09/11 00:56:05;;;;;;;26.40;15.18;;;;;;;10.37;79.26;99842.52;1734073;82;21011;-68
2021/09/11 00:58:31;;;;;;;27.40;14.87;;;;;;;10.41;79.19;99837.64;1728230;82;20999;-68
2021/09/11 01:00:57;;;;;;;26.42;14.93;;;;;;;10.48;78.99;99838.74;1732193;82;21027;-68
2021/09/11 01:03:24;;;;;;;26.62;14.35;;;;;;;10.49;79.11;99834.91;1739333;82;21023;-68
2021/09/11 01:05:50;;;;;;;22.40;15.28;;;;;;;10.43;79.24;99834.63;1731640;82;21087;-68
2021/09/11 01:08:17;;;;;;;23.18;14.18;;;;;;;10.35;79.36;99837.33;1720855;82;21036;-68
2021/09/11 01:10:44;;;;;;;26.02;12.98;;;;;;;10.38;79.32;99828.63;1728833;82;21063;-68
2021/09/11 01:13:11;;;;;;;23.50;15.38;;;;;;;10.45;79.06;99830.55;1727764;82;21024;-68
2021/09/11 01:15:40;;;;;;;25.25;15.35;;;;;;;10.46;79.03;99830.02;1717596;82;21535;-68
2021/09/11 01:18:07;;;;;;;23.90;16.15;;;;;;;10.39;79.33;99828.91;1736880;82;20987;-68
2021/09/11 01:20:35;;;;;;;26.73;15.30;;;;;;;10.36;79.50;99827.27;1738480;82;21688;-68
2021/09/11 01:23:01;;;;;;;23.35;14.80;;;;;;;10.38;79.48;99834.07;1713251;82;21015;-68
2021/09/11 01:25:28;;;;;;;24.15;15.23;;;;;;;10.44;79.26;99830.30;1711909;82;21072;-67
2021/09/11 01:27:55;;;;;;;26.23;16.45;;;;;;;10.45;79.38;99829.76;1714690;82;21566;-68
2021/09/11 01:30:21;;;;;;;;;;;;;;;10.41;79.73;99824.58;1736382;82;21068;-68
2021/09/11 01:32:49;;;;;;;26.05;17.02;;;;;;;10.38;79.98;99833.28;1711589;82;20118;-69
2021/09/11 01:35:16;;;;;;;23.25;15.70;;;;;;;10.24;80.27;99830.22;1726775;82;21538;-68
2021/09/11 01:37:42;;;;;;;24.57;16.45;;;;;;;10.25;80.34;99822.34;1725162;82;21548;-68
2021/09/11 01:40:10;;;;;;;28.38;16.73;;;;;;;10.34;80.11;99822.11;1726087;82;21788;-69
2021/09/11 01:42:36;;;;;;;25.37;17.07;;;;;;;10.41;80.00;99823.21;1718284;82;20956;-68
2021/09/11 01:45:12;;;;;;;26.45;17.85;;;;;;;10.40;79.96;99823.75;1711747;82;21099;-69
2021/09/11 01:47:38;;;;;;;24.60;17.20;;;;;;;10.36;80.11;99824.01;1715997;82;20984;-68
2021/09/11 01:50:07;;;;;;;27.50;16.95;;;;;;;10.32;80.29;99820.72;1727178;82;21031;-69
2021/09/11 01:52:33;;;;;;;22.45;15.38;;;;;;;10.35;80.14;99824.27;1729465;82;20980;-69
2021/09/11 01:55:00;;;;;;;23.98;17.15;;;;;;;10.41;79.75;99824.58;1750254;82;21035;-68
2021/09/11 01:57:26;;;;;;;28.98;16.42;;;;;;;10.40;79.46;99824.29;1743237;82;21011;-69
2021/09/11 01:59:54;;;;;;;26.75;16.97;;;;;;;10.32;79.41;99825.63;1730353;82;21090;-69
2021/09/11 02:02:21;;;;;;;21.82;14.93;;;;;;;10.23;79.47;99829.14;1743047;82;21069;-69
2021/09/11 02:04:47;;;;;;;20.48;14.47;;;;;;;10.23;79.36;99823.70;1740061;82;21636;-68
2021/09/11 02:07:15;;;;;;;23.47;15.32;;;;;;;10.26;79.09;99818.55;1728535;82;21027;-69
2021/09/11 02:09:41;;;;;;;21.20;15.30;;;;;;;10.23;79.05;99812.81;1736332;82;21063;-69
2021/09/11 02:12:09;;;;;;;26.73;15.43;;;;;;;10.14;79.23;99823.38;1740543;81;21002;-69
2021/09/11 02:14:37;;;;;;;23.22;14.75;;;;;;;10.05;79.44;99820.89;1744318;82;21628;-69
2021/09/11 02:17:05;;;;;;;22.95;14.87;;;;;;;10.06;79.36;99824.43;1748283;82;21090;-69
2021/09/11 02:19:33;;;;;;;23.10;14.75;;;;;;;10.07;79.15;99824.14;1729308;82;21580;-69
2021/09/11 02:22:04;;;;;;;22.90;15.15;;;;;;;10.03;79.25;99829.02;1731208;82;21935;-69
2021/09/11 02:24:31;;;;;;;25.32;15.78;;;;;;;9.93;79.54;99826.54;1750851;82;21023;-68
2021/09/11 02:26:57;;;;;;;25.90;15.75;;;;;;;9.87;79.84;99826.25;1743658;82;21003;-68
2021/09/11 02:29:24;;;;;;;22.35;14.23;;;;;;;9.89;79.83;99828.69;1733214;82;21609;-68
2021/09/11 02:31:51;;;;;;;24.20;14.35;;;;;;;9.94;79.63;99826.83;1716676;82;21485;-69
2021/09/11 02:34:19;;;;;;;21.02;14.70;;;;;;;9.92;79.59;99822.71;1735420;82;21605;-68
2021/09/11 02:36:46;;;;;;;25.30;14.80;;;;;;;9.84;79.76;99824.06;1728989;82;21018;-69
2021/09/11 02:39:12;;;;;;;25.02;15.23;;;;;;;9.75;79.94;99820.20;1708940;82;21592;-69
2021/09/11 02:41:38;;;;;;;24.85;14.15;;;;;;;9.75;80.04;99822.91;1745609;82;21521;-69
2021/09/11 02:44:05;;;;;;;25.37;15.32;;;;;;;9.80;79.88;99822.12;1723861;82;21639;-67
2021/09/11 02:46:31;;;;;;;23.85;15.15;;;;;;;9.77;79.90;99812.61;1740265;82;21481;-69
2021/09/11 02:49:00;;;;;;;24.92;16.10;;;;;;;9.77;80.11;99821.30;1728438;82;21710;-68
2021/09/11 02:51:28;;;;;;;23.62;15.43;;;;;;;9.72;80.27;99814.47;1742173;82;21008;-68
2021/09/11 02:53:55;;;;;;;28.65;16.02;;;;;;;9.73;80.02;99817.47;1747715;82;21561;-68
2021/09/11 02:56:23;;;;;;;24.18;15.55;;;;;;;9.74;79.69;99817.76;1730271;82;21062;-69
2021/09/11 02:58:51;;;;;;;25.43;15.65;;;;;;;9.69;79.68;99820.44;1740722;82;21039;-68
2021/09/11 03:01:17;;;;;;;26.80;16.50;;;;;;;9.59;79.95;99825.82;1738077;82;21015;-69
2021/09/11 03:03:44;;;;;;;;;;;;;;;9.50;80.25;99822.23;1732432;82;21062;-68
2021/09/11 03:06:10;;;;;;;27.17;15.10;;;;;;;9.49;80.41;99821.94;1736425;82;20156;-69
2021/09/11 03:08:36;;;;;;;20.90;14.78;;;;;;;9.50;80.36;99823.59;1731749;82;21015;-68
2021/09/11 03:11:04;;;;;;;27.75;16.60;;;;;;;9.48;80.39;99817.61;1739706;82;21154;-68
2021/09/11 03:13:32;;;;;;;25.77;16.80;;;;;;;9.45;80.59;99820.03;1741105;82;21054;-68
2021/09/11 03:15:59;;;;;;;26.05;16.30;;;;;;;9.41;80.80;99820.28;1738995;82;21043;-68
2021/09/11 03:18:25;;;;;;;24.15;15.38;;;;;;;9.44;80.81;99819.21;1739218;82;21035;-68
2021/09/11 03:20:52;;;;;;;24.57;15.75;;;;;;;9.52;80.57;99819.80;1747566;82;21055;-68
2021/09/11 03:23:20;;;;;;;23.45;15.72;;;;;;;9.51;80.59;99816.26;1724147;82;21098;-68
2021/09/11 03:25:48;;;;;;;24.87;17.07;;;;;;;9.46;80.83;99819.75;1745760;82;21039;-68
2021/09/11 03:28:15;;;;;;;27.35;16.40;;;;;;;9.43;81.01;99827.08;1749129;82;21037;-69
2021/09/11 03:30:41;;;;;;;27.17;15.72;;;;;;;9.45;81.03;99825.47;1737725;82;21035;-67
2021/09/11 03:33:08;;;;;;;24.37;15.43;;;;;;;9.51;80.83;99828.48;1703900;82;20991;-69
2021/09/11 03:35:36;;;;;;;25.72;15.38;;;;;;;9.58;80.74;99834.51;1738108;81;21050;-69
2021/09/11 03:38:02;;;;;;;27.62;15.68;;;;;;;9.59;80.71;99830.72;1751863;82;21054;-69
2021/09/11 03:40:30;;;;;;;29.67;16.67;;;;;;;9.55;80.89;99835.04;1742952;82;21055;-69
2021/09/11 03:42:56;;;;;;;25.27;16.40;;;;;;;9.50;81.11;99830.92;1732294;82;21017;-69
2021/09/11 03:45:23;;;;;;;24.50;15.83;;;;;;;9.54;81.16;99835.28;1723093;83;21047;-69
2021/09/11 03:47:51;;;;;;;27.75;16.48;;;;;;;9.61;80.94;99835.34;1733465;82;21042;-69
2021/09/11 03:50:19;;;;;;;24.92;15.75;;;;;;;9.63;80.94;99839.98;1743882;82;21613;-67
2021/09/11 03:52:46;;;;;;;23.22;16.27;;;;;;;9.62;81.15;99833.45;1726417;82;21014;-69
2021/09/11 03:55:13;;;;;;;26.42;15.45;;;;;;;9.59;81.35;99836.16;1725906;81;21075;-69
2021/09/11 03:57:41;;;;;;;24.10;15.88;;;;;;;9.61;81.46;99840.77;1723530;83;21022;-69
2021/09/11 04:00:09;;;;;;;26.17;17.07;;;;;;;9.66;81.31;99834.02;1736004;82;21062;-69
2021/09/11 04:02:38;;;;;;;26.07;17.70;;;;;;;9.64;81.40;99840.78;1742414;82;21019;-69
2021/09/11 04:05:04;;;;;;;23.90;16.12;;;;;;;9.57;81.74;99841.55;1746028;81;21094;-69
2021/09/11 04:08:24;;;;;;;24.00;16.60;;;;;;;9.66;81.88;99838.10;1802082;79;23767;-69
2021/09/11 04:10:52;;;;;;;24.65;15.88;;;;;;;9.64;81.94;99842.14;1742625;81;21039;-69
2021/09/11 04:13:20;;;;;;;25.27;16.27;;;;;;;9.61;82.22;99844.03;1731828;82;21078;-68
2021/09/11 04:15:48;;;;;;;23.27;15.85;;;;;;;9.66;82.34;99842.17;1743697;82;21062;-69
2021/09/11 04:18:14;;;;;;;23.65;15.80;;;;;;;9.79;82.19;99849.03;1727919;82;21074;-69
2021/09/11 04:20:41;;;;;;;27.45;16.52;;;;;;;9.90;82.11;99851.55;1729850;82;21018;-69
2021/09/11 04:23:07;;;;;;;24.87;16.75;;;;;;;9.95;82.21;99848.83;1727283;82;21037;-68
2021/09/11 04:25:34;;;;;;;26.65;17.23;;;;;;;10.03;82.36;99851.59;1737291;82;21106;-68
2021/09/11 04:28:00;;;;;;;26.23;16.57;;;;;;;10.16;82.20;99850.34;1739695;82;21095;-68
2021/09/11 04:30:27;;;;;;;24.50;16.52;;;;;;;10.35;81.95;99856.91;1740056;82;21092;-69
2021/09/11 04:32:55;;;;;;;27.22;17.02;;;;;;;10.44;81.88;99849.89;1730797;82;21125;-68
2021/09/11 04:35:21;;;;;;;25.12;17.25;;;;;;;10.50;82.03;99844.72;1741831;81;21027;-68
2021/09/11 04:37:47;;;;;;;24.50;15.98;;;;;;;10.55;82.17;99843.92;1725090;82;21031;-68
2021/09/11 04:40:14;;;;;;;;;;;;;;;10.64;82.25;99843.13;1735196;81;21043;-68
2021/09/11 04:42:40;;;;;;;35.65;17.23;;;;;;;10.78;82.02;99841.51;1731702;82;20438;-69
2021/09/11 04:45:08;;;;;;;28.02;16.87;;;;;;;10.80;82.02;99845.34;1723351;82;21556;-70
2021/09/11 04:47:34;;;;;;;28.55;16.40;;;;;;;10.81;82.20;99841.50;1740799;82;21078;-68
2021/09/11 04:50:02;;;;;;;25.00;15.32;;;;;;;10.89;82.24;99850.51;1728226;82;21039;-69
2021/09/11 04:52:30;;;;;;;27.30;16.62;;;;;;;11.05;81.95;99844.54;1736016;82;21553;-68
2021/09/11 04:54:56;;;;;;;30.75;17.77;;;;;;;11.16;81.81;99841.52;1738547;82;21036;-68
2021/09/11 04:57:23;;;;;;;26.27;16.77;;;;;;;11.23;81.82;99845.36;1733921;82;21054;-69
2021/09/11 04:59:50;;;;;;;30.70;19.05;;;;;;;11.33;81.83;99842.08;1729171;82;21010;-68
2021/09/11 05:02:17;;;;;;;30.92;18.62;;;;;;;11.49;81.60;99845.05;1729088;82;21050;-68
2021/09/11 05:04:43;;;;;;;;;;;;;;;11.60;81.54;99846.39;1740726;82;21101;-68
2021/09/11 05:07:09;;;;;;;27.85;18.35;;;;;;;11.66;81.65;99848.00;1739772;82;20137;-68
2021/09/11 05:09:37;;;;;;;29.92;20.45;;;;;;;11.75;81.74;99844.48;1732035;81;21086;-69
2021/09/11 05:12:05;;;;;;;30.43;20.48;;;;;;;12.01;81.67;99840.33;1727637;82;20999;-69
2021/09/11 05:14:33;;;;;;;30.50;21.02;;;;;;;12.28;81.71;99847.03;1735483;82;21063;-69
2021/09/11 05:16:59;;;;;;;39.25;22.67;;;;;;;12.56;81.59;99849.61;1741806;82;21002;-70
2021/09/11 05:19:26;;;;;;;37.03;23.90;;;;;;;12.86;81.28;99839.02;1723398;80;21078;-70
2021/09/11 05:21:54;;;;;;;33.42;22.02;;;;;;;13.19;80.84;99836.89;1736767;82;21074;-70
2021/09/11 05:24:20;;;;;;;46.23;25.50;;;;;;;13.60;80.11;99836.52;1719575;82;21106;-70
2021/09/11 05:26:48;;;;;;;38.98;22.93;;;;;;;14.02;79.21;99839.89;1718178;82;21676;-70
2021/09/11 05:29:14;;;;;;;53.23;29.15;;;;;;;14.71;76.96;99834.60;1719481;82;21059;-70
2021/09/11 05:31:41;;;;;;;43.23;27.02;;;;;;;14.71;76.96;99834.60;1729701;82;21051;-69
2021/09/11 05:34:07;;;;;;;;;;;;;;;15.04;75.08;99839.59;1725944;82;21142;-70
2021/09/11 05:36:34;;;;;;;38.85;23.80;;;;;;;15.36;73.81;99833.30;1729920;82;20164;-69
2021/09/11 05:39:01;;;;;;;35.05;23.18;;;;;;;15.67;72.75;99836.33;1737661;82;21007;-69
2021/09/11 05:41:27;;;;;;;40.78;26.65;;;;;;;16.08;71.21;99837.19;1732231;82;20984;-69
2021/09/11 05:43:54;;;;;;;44.75;25.95;;;;;;;16.48;70.39;99836.88;1733669;82;21043;-69
2021/09/11 05:46:21;;;;;;;44.90;25.88;;;;;;;16.84;69.27;99826.74;1744110;82;21513;-70
2021/09/11 05:48:49;;;;;;;45.88;25.43;;;;;;;17.15;68.86;99835.06;1723133;82;21560;-70
2021/09/11 05:51:15;;;;;;;;;;;;;;;17.47;67.72;99833.16;1738327;82;21619;-69
2021/09/11 05:53:42;;;;;;;42.88;24.10;;;;;;;17.76;67.15;99831.59;1720713;82;20105;-70
2021/09/11 05:56:08;;;;;;;31.33;20.12;;;;;;;17.95;66.78;99836.86;1719775;82;21138;-69
2021/09/11 05:58:34;;;;;;;;;;;;;;;18.15;66.12;99832.71;1728419;82;21062;-69
2021/09/11 06:01:00;;;;;;;32.75;23.12;;;;;;;18.29;65.50;99837.53;1721896;82;20106;-70
2021/09/11 06:03:26;;;;;;;;;;;;;;;18.32;64.70;99831.38;1748382;82;21594;-69
2021/09/11 06:05:55;;;;;;;30.23;21.75;;;;;;;18.54;64.29;99836.81;1744943;82;20115;-69
2021/09/11 06:08:21;;;;;;;35.73;23.73;;;;;;;18.68;64.24;99837.48;1736395;81;21914;-69
2021/09/11 06:10:47;;;;;;;32.48;24.23;;;;;;;18.90;63.40;99839.28;1733892;82;21522;-69
2021/09/11 06:13:15;;;;;;;30.12;23.70;;;;;;;19.16;62.34;99837.34;1717782;82;21040;-69
2021/09/11 06:15:43;;;;;;;31.02;23.30;;;;;;;19.45;61.14;99838.63;1711907;82;21106;-69
2021/09/11 06:18:10;;;;;;;29.23;23.07;;;;;;;19.73;60.14;99837.09;1715656;82;21004;-69
2021/09/11 06:20:38;;;;;;;28.32;22.48;;;;;;;19.96;59.28;99829.36;1730500;82;21110;-69
2021/09/11 06:23:04;;;;;;;28.62;22.37;;;;;;;20.25;59.54;99832.16;1729420;81;21008;-69
2021/09/11 06:25:30;;;;;;;27.50;22.00;;;;;;;20.66;59.83;99831.42;1733862;81;21035;-69
2021/09/11 06:27:57;;;;;;;26.57;20.95;;;;;;;21.14;58.81;99837.84;1724199;82;21022;-69
2021/09/11 06:30:24;;;;;;;27.80;22.45;;;;;;;21.60;56.94;99832.02;1725571;82;21478;-69
2021/09/11 06:32:51;;;;;;;26.82;21.68;;;;;;;21.88;55.11;99831.37;1715386;82;21051;-69
2021/09/11 06:35:17;;;;;;;27.67;21.37;;;;;;;21.96;53.69;99831.30;1718209;82;21071;-69
2021/09/11 06:37:44;;;;;;;26.48;19.70;;;;;;;21.82;52.79;99834.34;1730538;82;20992;-69
2021/09/11 06:40:13;;;;;;;23.55;19.30;;;;;;;21.61;53.23;99837.77;1717261;82;21103;-70
2021/09/11 06:42:40;;;;;;;22.52;18.57;;;;;;;21.59;53.39;99836.50;1711480;82;21438;-70
2021/09/11 06:45:07;;;;;;;23.90;19.17;;;;;;;21.68;53.17;99828.31;1717013;82;21102;-69
2021/09/11 06:47:34;;;;;;;24.30;18.48;;;;;;;21.63;53.16;99833.28;1689529;84;21565;-69
2021/09/11 06:50:00;;;;;;;24.52;19.20;;;;;;;21.86;53.83;99834.47;1720029;82;21688;-69
2021/09/11 06:52:27;;;;;;;22.62;16.27;;;;;;;21.86;53.83;99834.47;1695598;84;21011;-69
2021/09/11 06:54:53;;;;;;;22.13;17.35;;;;;;;22.23;53.32;99838.12;1709516;84;21060;-69
2021/09/11 06:57:19;;;;;;;23.45;17.87;;;;;;;22.43;51.40;99841.34;1710358;82;21020;-69
2021/09/11 06:59:46;;;;;;;23.22;16.93;;;;;;;22.76;52.20;99847.58;1719288;82;21024;-69
2021/09/11 07:02:12;;;;;;;21.80;16.45;;;;;;;23.22;51.62;99846.17;1723273;82;21023;-70
2021/09/11 07:04:38;;;;;;;22.40;16.65;;;;;;;23.63;49.63;99836.61;1721031;82;21051;-69
2021/09/11 07:07:08;;;;;;;22.80;15.85;;;;;;;23.99;48.84;99835.57;1735999;81;21894;-70
2021/09/11 07:09:36;;;;;;;21.65;16.02;;;;;;;24.35;48.47;99837.29;1735094;82;21103;-69
2021/09/11 07:12:03;;;;;;;21.23;15.75;;;;;;;24.51;47.01;99840.87;1714073;82;20979;-69
2021/09/11 07:14:30;;;;;;;21.85;15.60;;;;;;;24.49;46.23;99835.42;1742851;82;21043;-70
2021/09/11 07:16:57;;;;;;;19.10;15.18;;;;;;;24.41;46.49;99837.84;1746412;82;21056;-69
2021/09/11 07:19:23;;;;;;;24.57;17.10;;;;;;;24.36;47.14;99836.71;1728563;82;21035;-69
2021/09/11 07:21:49;;;;;;;22.50;15.38;;;;;;;24.54;47.76;99841.53;1723043;82;21015;-70
2021/09/11 07:24:17;;;;;;;26.02;16.42;;;;;;;24.98;47.75;99840.75;1740672;82;21016;-70
2021/09/11 07:26:43;;;;;;;18.90;15.20;;;;;;;25.45;46.08;99843.31;1725982;82;21006;-71
2021/09/11 07:29:10;;;;;;;19.42;14.35;;;;;;;25.81;44.92;99833.67;1728462;82;21039;-70
2021/09/11 07:31:36;;;;;;;18.20;15.25;;;;;;;25.94;44.40;99833.70;1730686;82;21494;-71
2021/09/11 07:34:02;;;;;;;18.10;14.47;;;;;;;25.92;44.79;99833.86;1707753;82;21038;-70
2021/09/11 07:36:29;;;;;;;19.60;14.95;;;;;;;25.83;44.35;99834.09;1717593;83;20973;-70
2021/09/11 07:41:36;;;;;;;;;;;;;;;25.44;45.23;99835.30;1790038;79;22900;-71
2021/09/11 07:44:02;;;;;;;19.90;14.15;;;;;;;25.71;45.21;99836.49;1746643;82;20141;-70
2021/09/11 07:46:29;;;;;;;16.97;12.18;;;;;;;26.08;43.61;99832.55;1734149;82;21081;-69
2021/09/11 07:48:55;;;;;;;17.90;11.15;;;;;;;26.40;41.94;99836.47;1776378;80;20999;-71
2021/09/11 07:51:21;;;;;;;16.12;11.33;;;;;;;26.41;41.55;99833.90;1745229;82;21057;-70
2021/09/11 07:53:48;;;;;;;15.38;11.78;;;;;;;26.59;41.66;99833.59;1750841;82;20999;-71
2021/09/11 07:56:14;;;;;;;17.12;10.58;;;;;;;26.82;41.22;99834.92;1751131;80;21058;-73
2021/09/11 07:58:40;;;;;;;18.50;11.35;;;;;;;26.52;40.12;99834.28;1747646;82;21021;-73
2021/09/11 08:01:07;;;;;;;13.35;9.50;;;;;;;26.12;41.26;99838.99;1750822;82;21053;-70
2021/09/11 08:03:34;;;;;;;14.23;10.85;;;;;;;26.02;41.87;99838.81;1750350;82;21016;-72
2021/09/11 08:06:07;;;;;;;13.88;10.50;;;;;;;26.36;40.83;99830.83;1747079;82;21027;-71
2021/09/11 08:08:29;;;;;;;18.10;10.38;;;;;;;26.72;41.53;99832.17;1739450;82;20996;-73
2021/09/11 08:10:55;;;;;;;12.37;9.10;;;;;;;26.89;38.28;99827.45;1751100;80;21520;-72
2021/09/11 08:13:22;;;;;;;15.60;9.70;;;;;;;26.78;39.40;99829.88;1751533;82;21037;-72
2021/09/11 08:15:49;;;;;;;13.03;9.05;;;;;;;26.92;39.60;99828.70;1724315;82;21100;-72
2021/09/11 08:18:16;;;;;;;12.00;9.30;;;;;;;27.07;39.65;99828.48;1750692;82;20985;-72
2021/09/11 08:20:44;;;;;;;12.82;8.95;;;;;;;27.32;39.12;99827.39;1751138;82;21587;-74
2021/09/11 08:23:10;;;;;;;13.68;9.10;;;;;;;27.37;37.98;99824.86;1751325;82;21001;-74
2021/09/11 08:25:36;;;;;;;19.87;9.43;;;;;;;27.15;38.03;99826.00;1751220;80;21667;-72
2021/09/11 08:28:03;;;;;;;12.47;9.08;;;;;;;26.93;38.79;99821.91;1751717;82;21548;-74
2021/09/11 08:30:30;;;;;;;13.85;8.65;;;;;;;26.86;37.91;99828.80;1751411;80;21416;-68
2021/09/11 08:32:56;;;;;;;11.18;8.03;;;;;;;26.91;39.55;99822.30;1751506;82;21479;-71
2021/09/11 08:35:22;;;;;;;13.62;9.00;;;;;;;27.30;37.55;99815.00;1751244;80;21006;-72
2021/09/11 08:37:50;;;;;;;11.93;8.13;;;;;;;27.39;37.81;99812.69;1750686;82;20982;-73
2021/09/11 08:40:18;;;;;;;12.20;7.75;;;;;;;27.40;37.51;99815.70;1746656;82;21030;-72
2021/09/11 08:42:45;;;;;;;11.88;7.37;;;;;;;27.35;37.81;99814.67;1738186;82;21097;-72
2021/09/11 08:45:15;;;;;;;8.55;6.30;;;;;;;27.57;37.50;99808.94;1738387;82;21038;-72
2021/09/11 08:47:45;;;;;;;10.08;6.85;;;;;;;27.62;34.96;99809.20;1738240;81;21027;-69
2021/09/11 08:50:13;;;;;;;10.95;7.28;;;;;;;27.47;35.92;99803.23;1738332;82;20975;-71
2021/09/11 08:52:43;;;;;;;8.75;6.55;;;;;;;27.80;36.27;99799.58;1737798;81;21008;-70
2021/09/11 08:55:11;;;;;;;9.50;6.60;;;;;;;28.10;34.37;99805.86;1736401;82;20976;-73
2021/09/11 08:57:38;;;;;;;9.78;5.62;;;;;;;28.01;33.81;99797.78;1737544;82;21026;-71
2021/09/11 09:00:07;;;;;;;8.00;5.25;;;;;;;28.04;34.37;99800.39;1737783;82;20995;-70
2021/09/11 09:02:34;;;;;;;7.92;4.83;;;;;;;28.25;32.05;99793.59;1737292;81;21117;-70
2021/09/11 09:05:02;;;;;;;6.60;4.70;;;;;;;28.26;30.84;99793.80;1737440;82;21496;-70
2021/09/11 09:07:35;;;;;;;6.12;3.92;;;;;;;28.27;30.30;99787.62;1737799;81;21019;-70
2021/09/11 09:10:07;;;;;;;7.65;4.42;;;;;;;28.33;30.69;99786.05;1737231;82;21073;-71
2021/09/11 09:12:38;;;;;;;6.40;4.85;;;;;;;28.50;30.81;99784.77;1737589;82;21058;-72
2021/09/11 09:15:17;;;;;;;8.98;4.55;;;;;;;28.41;30.57;99782.11;1737707;82;21003;-72
2021/09/11 09:17:53;;;;;;;6.00;4.37;;;;;;;28.12;30.55;99782.50;1736897;82;21033;-73
2021/09/11 09:20:28;;;;;;;8.03;4.65;;;;;;;27.71;31.55;99777.51;1737931;82;21001;-70
2021/09/11 09:23:07;;;;;;;7.37;4.45;;;;;;;27.59;31.37;99778.62;1737913;82;21446;-73
2021/09/11 09:25:37;;;;;;;6.95;4.70;;;;;;;27.29;30.64;99779.25;1737744;81;21041;-73
2021/09/11 09:28:13;;;;;;;6.12;4.53;;;;;;;27.13;31.59;99782.88;1729896;82;20950;-73
2021/09/11 09:30:43;;;;;;;6.35;4.90;;;;;;;26.98;31.96;99777.70;1735612;82;21658;-71
2021/09/11 09:33:23;;;;;;;6.90;5.28;;;;;;;26.83;32.74;99780.09;1737828;82;20946;-71
2021/09/11 09:35:50;;;;;;;10.15;5.60;;;;;;;26.77;33.30;99777.98;1737657;82;21488;-72
2021/09/11 09:38:17;;;;;;;8.48;5.60;;;;;;;26.66;33.03;99775.86;1738034;82;21465;-73
2021/09/11 09:40:49;;;;;;;7.78;5.78;;;;;;;26.58;33.43;99777.53;1730783;82;21674;-70
2021/09/11 09:43:34;;;;;;;10.28;5.53;;;;;;;26.37;34.17;99777.22;1722230;82;20948;-72
2021/09/11 09:46:05;;;;;;;7.40;5.58;;;;;;;26.27;33.45;99774.49;1714924;82;21046;-73
2021/09/11 09:48:33;;;;;;;7.95;5.55;;;;;;;26.03;34.16;99770.70;1713420;82;20935;-71
2021/09/11 09:51:09;;;;;;;7.95;5.12;;;;;;;25.81;33.32;99768.73;1713718;83;21617;-72
2021/09/11 09:53:37;;;;;;;8.13;5.60;;;;;;;25.48;35.18;99764.53;1705929;82;20973;-70
2021/09/11 09:56:04;;;;;;;6.55;5.12;;;;;;;25.48;35.18;99764.53;1725159;82;21425;-73
2021/09/11 09:58:31;;;;;;;10.78;5.60;;;;;;;25.31;33.79;99765.60;1741603;82;20954;-72
2021/09/11 10:00:57;;;;;;;8.68;5.55;;;;;;;25.09;34.81;99769.37;1716829;82;21596;-72
2021/09/11 10:03:25;;;;;;;7.75;5.25;;;;;;;25.06;34.04;99765.12;1713592;84;21462;-69
2021/09/11 10:06:03;;;;;;;7.10;5.55;;;;;;;24.95;34.30;99759.33;1713547;84;21015;-71
2021/09/11 10:08:30;;;;;;;9.53;6.97;;;;;;;24.96;35.40;99755.97;1715500;82;20971;-71
2021/09/11 10:10:59;;;;;;;7.20;5.92;;;;;;;25.00;36.43;99757.66;1718914;82;21041;-71
2021/09/11 10:13:27;;;;;;;7.90;5.65;;;;;;;25.03;36.74;99753.33;1704645;83;21041;-73
2021/09/11 10:16:01;;;;;;;7.10;5.53;;;;;;;25.08;36.06;99746.86;1720950;83;21018;-70
2021/09/11 10:18:36;;;;;;;7.40;5.30;;;;;;;25.08;36.36;99748.86;1708707;83;20975;-71
2021/09/11 10:21:38;;;;;;;6.83;5.90;;;;;;;25.17;35.92;99753.02;1713485;84;21601;-69
2021/09/11 10:24:17;;;;;;;9.83;6.15;;;;;;;25.28;36.78;99742.08;1706227;84;20948;-69
2021/09/11 10:26:51;;;;;;;8.38;6.40;;;;;;;25.46;35.09;99750.77;1716663;82;21161;-68
2021/09/11 10:29:49;;;;;;;10.43;6.80;;;;;;;25.43;35.21;99748.14;1743795;82;21031;-72
2021/09/11 10:32:25;;;;;;;14.13;6.72;;;;;;;25.38;34.98;99746.23;1734804;82;21546;-72
2021/09/11 10:35:06;;;;;;;8.58;6.20;;;;;;;25.28;35.26;99735.11;1721190;83;21025;-71
2021/09/11 10:37:48;;;;;;;10.13;7.03;;;;;;;25.15;35.72;99741.42;1720077;82;21022;-69
2021/09/11 10:40:32;;;;;;;8.63;7.28;;;;;;;25.20;35.34;99742.53;1718585;82;21023;-68
2021/09/11 10:43:20;;;;;;;11.90;7.58;;;;;;;25.17;36.61;99732.71;1692433;83;21167;-69
2021/09/11 10:45:58;;;;;;;13.10;8.20;;;;;;;25.19;37.19;99728.95;1709192;82;21066;-72
2021/09/11 10:48:44;;;;;;;9.25;7.10;;;;;;;25.26;36.38;99730.48;1693337;82;21314;-71
2021/09/11 10:51:36;;;;;;;8.55;6.58;;;;;;;25.28;35.44;99725.36;1716974;83;21046;-71
2021/09/11 10:54:26;;;;;;;9.28;6.83;;;;;;;25.27;35.04;99727.92;1708364;83;21454;-71
2021/09/11 10:57:06;;;;;;;7.55;6.33;;;;;;;25.37;35.47;99731.48;1700294;83;21696;-72
2021/09/11 10:59:36;;;;;;;10.60;7.67;;;;;;;25.51;34.29;99724.80;1708991;82;20991;-72
2021/09/11 11:02:10;;;;;;;10.95;7.03;;;;;;;25.58;35.17;99724.92;1715745;82;21066;-70
2021/09/11 11:04:51;;;;;;;10.30;7.75;;;;;;;25.60;34.88;99721.20;1720104;82;20940;-71
2021/09/11 11:07:25;;;;;;;11.55;7.90;;;;;;;25.57;35.94;99707.20;1709323;82;21047;-73
2021/09/11 11:10:06;;;;;;;12.15;7.80;;;;;;;25.56;35.24;99713.36;1709637;83;20986;-71
2021/09/11 11:12:41;;;;;;;10.80;7.92;;;;;;;25.62;35.63;99706.87;1715627;82;21464;-73
2021/09/11 11:15:11;;;;;;;10.05;8.03;;;;;;;25.62;35.89;99706.87;1693004;83;20952;-70
2021/09/11 11:17:44;;;;;;;11.03;7.42;;;;;;;25.53;36.86;99708.53;1730353;82;21038;-72
2021/09/11 11:20:13;;;;;;;9.93;8.23;;;;;;;25.51;37.17;99707.27;1715946;83;21474;-71
2021/09/11 11:22:42;;;;;;;9.70;7.75;;;;;;;25.46;36.65;99704.20;1720815;82;21182;-72
2021/09/11 11:25:27;;;;;;;9.85;7.62;;;;;;;25.36;36.36;99699.83;1716095;82;21011;-71
2021/09/11 11:27:56;;;;;;;9.05;7.85;;;;;;;25.25;37.41;99698.25;1731112;82;21483;-68
2021/09/11 11:30:22;;;;;;;10.15;7.28;;;;;;;25.31;36.28;99690.38;1727486;82;21018;-70
2021/09/11 11:32:48;;;;;;;10.28;7.97;;;;;;;25.38;36.24;99687.13;1707524;82;21569;-72
2021/09/11 11:35:15;;;;;;;12.05;8.35;;;;;;;25.40;37.59;99691.73;1685527;85;21514;-72